createdAt,value
2023-02-11T00:01:58.257Z,32.33
2023-02-11T00:04:25.866Z,32.93
2023-02-11T00:06:53.445Z,35.40
2023-02-11T00:09:20.957Z,33.33
2023-02-11T00:11:48.526Z,31.60
2023-02-11T00:14:16.076Z,29.03
2023-02-11T00:16:43.717Z,27.03
2023-02-11T00:19:11.294Z,35.37
2023-02-11T00:21:38.875Z,29.03
2023-02-11T00:24:06.512Z,31.37
2023-02-11T00:26:35.038Z,30.80
2023-02-11T00:29:03.225Z,33.67
2023-02-11T00:31:30.934Z,29.23
2023-02-11T00:33:58.610Z,31.13
2023-02-11T00:36:27.898Z,33.47
2023-02-11T00:38:56.413Z,31.50
2023-02-11T00:41:24.540Z,31.33
2023-02-11T00:43:52.201Z,30.87
2023-02-11T00:46:19.792Z,31.37
2023-02-11T00:48:47.556Z,34.50
2023-02-11T00:51:15.206Z,32.63
2023-02-11T00:53:42.983Z,32.87
2023-02-11T00:56:10.493Z,34.47
2023-02-11T00:58:38.138Z,31.50
2023-02-11T01:01:05.792Z,29.90
2023-02-11T01:03:33.406Z,35.00
2023-02-11T01:06:01.137Z,36.27
2023-02-11T01:08:28.678Z,32.33
2023-02-11T01:11:00.264Z,29.93
2023-02-11T01:13:28.962Z,30.47
2023-02-11T01:15:56.978Z,25.70
2023-02-11T01:18:25.030Z,32.53
2023-02-11T01:20:53.194Z,31.87
2023-02-11T01:23:21.236Z,29.23
2023-02-11T01:25:49.086Z,33.57
2023-02-11T01:28:18.324Z,32.60
2023-02-11T01:30:46.038Z,30.30
2023-02-11T01:33:13.818Z,34.83
2023-02-11T01:35:41.548Z,31.53
2023-02-11T01:38:09.294Z,30.70
2023-02-11T01:40:36.785Z,27.57
2023-02-11T01:43:04.421Z,33.07
2023-02-11T01:45:46.951Z,30.37
2023-02-11T01:48:16.645Z,30.90
2023-02-11T01:50:45.447Z,29.13
2023-02-11T01:53:13.438Z,24.87
2023-02-11T01:55:40.889Z,28.23
2023-02-11T01:58:08.489Z,26.67
2023-02-11T02:00:37.368Z,30.23
2023-02-11T02:03:13.221Z,26.93
2023-02-11T02:05:40.783Z,24.80
2023-02-11T02:08:11.079Z,34.10
2023-02-11T02:10:41.262Z,29.17
2023-02-11T02:13:08.816Z,29.63
2023-02-11T02:15:38.076Z,30.10
2023-02-11T02:18:11.701Z,29.33
2023-02-11T02:20:58.056Z,31.17
2023-02-11T02:23:28.727Z,27.67
2023-02-11T02:26:11.463Z,28.23
2023-02-11T02:28:57.459Z,29.37
2023-02-11T02:31:31.274Z,28.90
2023-02-11T02:33:58.853Z,26.63
2023-02-11T02:36:39.401Z,30.10
2023-02-11T02:39:18.579Z,26.03
2023-02-11T02:41:46.915Z,29.00
2023-02-11T02:44:14.433Z,27.50
2023-02-11T02:46:42.045Z,26.03
2023-02-11T02:49:16.450Z,32.50
2023-02-11T02:52:02.599Z,25.73
2023-02-11T02:54:30.094Z,27.40
2023-02-11T02:57:09.804Z,28.30
2023-02-11T02:59:49.577Z,21.13
2023-02-11T03:02:26.293Z,29.80
2023-02-11T03:05:12.442Z,26.83
2023-02-11T03:07:51.916Z,30.30
2023-02-11T03:10:22.144Z,22.20
2023-02-11T03:12:50.525Z,26.20
2023-02-11T03:15:18.978Z,21.73
2023-02-11T03:17:47.915Z,25.03
2023-02-11T03:20:16.509Z,28.73
2023-02-11T03:22:48.664Z,26.33
2023-02-11T03:25:19.770Z,27.40
2023-02-11T03:27:47.267Z,28.83
2023-02-11T03:30:18.084Z,28.00
2023-02-11T03:32:48.695Z,26.10
2023-02-11T03:35:20.857Z,27.40
2023-02-11T03:37:51.138Z,23.37
2023-02-11T03:40:29.229Z,25.33
2023-02-11T03:43:01.875Z,31.33
2023-02-11T03:45:29.784Z,27.73
2023-02-11T03:48:13.303Z,29.03
2023-02-11T03:50:42.212Z,21.97
2023-02-11T03:53:10.787Z,27.53
2023-02-11T03:55:39.619Z,26.37
2023-02-11T03:58:07.511Z,22.43
2023-02-11T04:00:38.400Z,36.07
2023-02-11T04:03:06.639Z,22.57
2023-02-11T04:05:34.488Z,26.30
2023-02-11T04:08:02.113Z,26.23
2023-02-11T04:10:29.624Z,25.43
2023-02-11T04:12:57.386Z,30.07
2023-02-11T04:15:25.207Z,24.50
2023-02-11T04:17:52.715Z,23.10
2023-02-11T04:20:20.307Z,25.40
2023-02-11T04:22:47.804Z,28.90
2023-02-11T04:25:15.304Z,23.07
2023-02-11T04:27:42.884Z,31.00
2023-02-11T04:30:10.688Z,28.33
2023-02-11T04:32:38.250Z,27.47
2023-02-11T04:35:06.090Z,30.23
2023-02-11T04:37:33.665Z,31.83
2023-02-11T04:40:01.142Z,26.00
2023-02-11T04:42:28.678Z,26.27
2023-02-11T04:44:56.202Z,32.53
2023-02-11T04:47:23.807Z,29.47
2023-02-11T04:49:51.333Z,32.00
2023-02-11T04:52:18.940Z,33.67
2023-02-11T04:54:46.473Z,26.90
2023-02-11T04:57:14.058Z,25.73
2023-02-11T04:59:41.623Z,31.10
2023-02-11T05:02:09.200Z,30.37
2023-02-11T05:04:36.754Z,32.10
2023-02-11T05:07:04.331Z,24.03
2023-02-11T05:09:31.856Z,25.40
2023-02-11T05:11:59.431Z,25.83
2023-02-11T05:14:27.024Z,26.73
2023-02-11T05:16:54.615Z,25.13
2023-02-11T05:19:22.212Z,34.83
2023-02-11T05:22:01.773Z,27.77
2023-02-11T05:24:30.411Z,30.83
2023-02-11T05:26:57.904Z,21.80
2023-02-11T05:29:25.437Z,25.93
2023-02-11T05:31:52.975Z,31.63
2023-02-11T05:34:20.551Z,33.57
2023-02-11T05:36:48.036Z,33.43
2023-02-11T05:39:15.594Z,27.40
2023-02-11T05:41:43.123Z,30.83
2023-02-11T05:44:10.665Z,27.27
2023-02-11T05:46:38.191Z,30.70
2023-02-11T05:49:05.790Z,28.80
2023-02-11T05:51:33.304Z,31.27
2023-02-11T05:54:00.912Z,30.53
2023-02-11T05:56:28.445Z,34.53
2023-02-11T05:58:55.991Z,28.30
2023-02-11T06:01:23.475Z,38.37
2023-02-11T06:03:51.002Z,35.70
2023-02-11T06:06:18.661Z,35.93
2023-02-11T06:08:46.204Z,27.40
2023-02-11T06:11:15.502Z,27.50
2023-02-11T06:13:43.056Z,33.43
2023-02-11T06:16:10.905Z,37.17
2023-02-11T06:18:38.510Z,32.90
2023-02-11T06:21:09.831Z,30.40
2023-02-11T06:23:37.427Z,32.37
2023-02-11T06:26:06.072Z,38.30
2023-02-11T06:28:33.919Z,33.30
2023-02-11T06:31:05.675Z,36.07
2023-02-11T06:33:33.642Z,37.57
2023-02-11T06:36:01.277Z,34.83
2023-02-11T06:38:28.841Z,36.43
2023-02-11T06:40:56.485Z,38.63
2023-02-11T06:43:24.125Z,40.83
2023-02-11T06:45:54.929Z,30.30
2023-02-11T06:48:22.834Z,32.43
2023-02-11T06:50:50.378Z,31.77
2023-02-11T06:53:20.967Z,38.77
2023-02-11T06:55:48.807Z,36.53
2023-02-11T06:58:16.465Z,42.10
2023-02-11T07:00:44.102Z,39.23
2023-02-11T07:03:11.760Z,35.77
2023-02-11T07:05:42.783Z,39.27
2023-02-11T07:08:10.303Z,32.63
2023-02-11T07:10:37.827Z,34.37
2023-02-11T07:13:05.380Z,36.57
2023-02-11T07:15:33.249Z,33.30
2023-02-11T07:18:00.848Z,31.63
2023-02-11T07:20:28.336Z,36.70
2023-02-11T07:22:55.921Z,32.57
2023-02-11T07:25:23.476Z,37.97
2023-02-11T07:27:51.032Z,34.37
2023-02-11T07:30:18.542Z,33.73
2023-02-11T07:32:46.173Z,42.10
2023-02-11T07:35:13.650Z,42.57
2023-02-11T07:37:41.242Z,36.00
2023-02-11T07:40:09.540Z,33.83
2023-02-11T07:42:37.139Z,32.70
2023-02-11T07:45:04.753Z,41.00
2023-02-11T07:47:32.331Z,43.37
2023-02-11T07:49:59.801Z,37.93
2023-02-11T07:52:30.049Z,37.13
2023-02-11T07:54:57.809Z,40.47
2023-02-11T07:57:25.396Z,43.47
2023-02-11T07:59:53.571Z,38.87
2023-02-11T08:02:21.176Z,48.30
2023-02-11T08:04:48.765Z,37.43
2023-02-11T08:07:17.384Z,37.80
2023-02-11T08:09:45.080Z,32.70
2023-02-11T08:12:12.710Z,48.27
2023-02-11T08:14:40.236Z,51.03
2023-02-11T08:17:07.773Z,41.83
2023-02-11T08:19:35.459Z,41.03
2023-02-11T08:22:03.009Z,39.37
2023-02-11T08:24:30.596Z,39.37
2023-02-11T08:26:58.109Z,41.13
2023-02-11T08:29:25.908Z,47.17
2023-02-11T08:31:53.496Z,42.37
2023-02-11T08:34:21.098Z,45.50
2023-02-11T08:36:49.094Z,43.67
2023-02-11T08:39:20.305Z,48.70
2023-02-11T08:41:57.088Z,43.83
2023-02-11T08:44:25.002Z,45.20
2023-02-11T08:46:52.890Z,47.67
2023-02-11T08:49:20.588Z,40.00
2023-02-11T08:51:48.726Z,53.60
2023-02-11T08:54:16.765Z,44.97
2023-02-11T08:56:44.547Z,48.27
2023-02-11T08:59:14.066Z,46.90
2023-02-11T09:01:41.911Z,47.77
2023-02-11T09:04:10.650Z,45.13
2023-02-11T09:06:41.287Z,44.67
2023-02-11T09:09:11.403Z,38.93
2023-02-11T09:11:38.998Z,49.47
2023-02-11T09:14:06.573Z,42.13
2023-02-11T09:16:35.697Z,40.63
2023-02-11T09:19:06.669Z,49.13
2023-02-11T09:21:34.213Z,46.93
2023-02-11T09:24:01.740Z,45.63
2023-02-11T09:26:30.628Z,46.17
2023-02-11T09:28:58.202Z,44.20
2023-02-11T09:31:27.159Z,47.93
2023-02-11T09:33:56.234Z,42.47
2023-02-11T09:36:25.298Z,45.20
2023-02-11T09:38:53.354Z,40.17
2023-02-11T09:41:23.653Z,53.40
2023-02-11T09:43:53.725Z,52.53
2023-02-11T09:46:22.349Z,45.67
2023-02-11T09:48:51.368Z,42.83
2023-02-11T09:51:26.710Z,55.43
2023-02-11T09:53:59.400Z,47.73
2023-02-11T09:56:28.888Z,47.03
2023-02-11T09:58:56.446Z,38.93
2023-02-11T10:01:41.764Z,41.40
2023-02-11T10:04:25.992Z,48.43
2023-02-11T10:06:53.650Z,43.10
2023-02-11T10:09:33.467Z,46.57
2023-02-11T10:12:19.785Z,41.83
2023-02-11T10:15:05.509Z,51.73
2023-02-11T10:17:51.684Z,42.67
2023-02-11T10:20:19.222Z,40.03
2023-02-11T10:22:51.369Z,49.97
2023-02-11T10:25:24.326Z,44.73
2023-02-11T10:27:52.803Z,52.07
2023-02-11T10:30:40.670Z,44.03
2023-02-11T10:33:16.150Z,49.80
2023-02-11T10:35:43.774Z,46.67
2023-02-11T10:38:11.929Z,44.50
2023-02-11T10:40:42.266Z,44.47
2023-02-11T10:43:14.850Z,50.47
2023-02-11T10:45:45.316Z,43.37
2023-02-11T10:48:31.423Z,45.07
2023-02-11T10:51:14.765Z,53.97
2023-02-11T10:53:42.701Z,44.73
2023-02-11T10:56:12.404Z,48.87
2023-02-11T10:58:47.568Z,52.07
2023-02-11T11:01:24.226Z,48.73
2023-02-11T11:03:52.837Z,42.47
2023-02-11T11:06:31.428Z,48.43
2023-02-11T11:08:59.161Z,47.63
2023-02-11T11:11:29.190Z,54.33
2023-02-11T11:14:00.539Z,46.77
2023-02-11T11:16:29.487Z,45.23
2023-02-11T11:19:09.402Z,47.57
2023-02-11T11:21:41.044Z,47.17
2023-02-11T11:24:17.205Z,50.67
2023-02-11T11:26:47.047Z,52.27
2023-02-11T11:29:16.996Z,45.17
2023-02-11T11:31:52.678Z,50.37
2023-02-11T11:34:39.651Z,47.67
2023-02-11T11:37:12.022Z,47.27
2023-02-11T11:39:40.004Z,44.97
2023-02-11T11:42:24.794Z,55.47
2023-02-11T11:45:00.032Z,47.77
2023-02-11T11:47:33.724Z,53.77
2023-02-11T11:50:10.348Z,48.77
2023-02-11T11:52:40.767Z,45.33
2023-02-11T11:55:18.684Z,50.00
2023-02-11T11:57:46.291Z,49.20
2023-02-11T12:00:18.307Z,48.77
2023-02-11T12:02:45.925Z,45.90
2023-02-11T12:05:23.275Z,45.50
2023-02-11T12:08:09.796Z,51.23
2023-02-11T12:10:40.525Z,46.00
2023-02-11T12:13:17.272Z,44.33
2023-02-11T12:15:44.752Z,47.77
2023-02-11T12:18:12.244Z,50.50
2023-02-11T12:20:46.701Z,52.00
2023-02-11T12:23:26.106Z,44.17
2023-02-11T12:26:09.018Z,44.63
2023-02-11T12:28:42.866Z,51.00
2023-02-11T12:31:22.880Z,45.80
2023-02-11T12:34:09.019Z,48.73
2023-02-11T12:36:52.212Z,48.03
2023-02-11T12:39:32.435Z,51.87
2023-02-11T12:42:00.060Z,53.87
2023-02-11T12:44:33.512Z,46.80
2023-02-11T12:47:01.091Z,48.67
2023-02-11T12:49:28.623Z,53.20
2023-02-11T12:52:12.216Z,49.40
2023-02-11T12:55:03.121Z,58.33
2023-02-11T12:57:35.141Z,51.43
2023-02-11T13:00:21.539Z,50.17
2023-02-11T13:02:54.894Z,48.77
2023-02-11T13:05:25.356Z,43.43
2023-02-11T13:07:54.802Z,47.27
2023-02-11T13:10:22.274Z,44.70
2023-02-11T13:12:50.888Z,46.47
2023-02-11T13:15:18.853Z,50.20
2023-02-11T13:17:55.412Z,44.70
2023-02-11T13:20:32.662Z,48.97
2023-02-11T13:23:06.858Z,46.20
2023-02-11T13:25:47.300Z,48.13
2023-02-11T13:28:17.800Z,49.70
2023-02-11T13:30:45.775Z,54.37
2023-02-11T13:33:16.583Z,45.03
2023-02-11T13:36:07.235Z,46.33
2023-02-11T13:38:35.113Z,52.70
2023-02-11T13:41:02.619Z,49.47
2023-02-11T13:43:30.716Z,49.03
2023-02-11T13:45:59.761Z,52.80
2023-02-11T13:48:31.978Z,51.60
2023-02-11T13:51:10.677Z,50.70
2023-02-11T13:53:49.246Z,50.27
2023-02-11T13:56:30.371Z,48.37
2023-02-11T13:59:01.899Z,48.83
2023-02-11T14:01:43.521Z,45.70
2023-02-11T14:04:24.442Z,48.33
2023-02-11T14:07:30.431Z,50.17
2023-02-11T14:10:00.758Z,44.53
2023-02-11T14:12:32.804Z,50.23
2023-02-11T14:15:02.863Z,51.27
2023-02-11T14:17:33.121Z,51.03
2023-02-11T14:20:02.246Z,39.67
2023-02-11T14:22:31.840Z,52.37
2023-02-11T14:24:59.427Z,53.27
2023-02-11T14:27:50.228Z,45.93
2023-02-11T14:30:23.822Z,43.47
2023-02-11T14:32:58.155Z,49.63
2023-02-11T14:35:25.669Z,45.17
2023-02-11T14:38:18.821Z,48.23
2023-02-11T14:40:50.109Z,50.83
2023-02-11T14:43:20.510Z,45.63
2023-02-11T14:45:51.118Z,48.27
2023-02-11T14:48:19.882Z,46.23
2023-02-11T14:50:50.347Z,43.43
2023-02-11T14:53:20.216Z,47.60
2023-02-11T14:55:49.098Z,43.80
2023-02-11T14:58:19.736Z,45.03
2023-02-11T15:00:58.460Z,42.93
2023-02-11T15:03:33.707Z,45.87
2023-02-11T15:06:18.261Z,44.17
2023-02-11T15:08:48.433Z,47.77
2023-02-11T15:11:19.950Z,43.27
2023-02-11T15:13:48.143Z,38.97
2023-02-11T15:16:17.986Z,42.40
2023-02-11T15:18:53.444Z,45.10
2023-02-11T15:21:25.473Z,46.07
2023-02-11T15:24:16.385Z,45.00
2023-02-11T15:26:43.959Z,41.40
2023-02-11T15:29:17.522Z,55.50
2023-02-11T15:31:45.251Z,51.67
2023-02-11T15:34:12.850Z,46.33
2023-02-11T15:36:40.404Z,52.50
2023-02-11T15:39:18.212Z,54.00
2023-02-11T15:41:45.824Z,52.90
2023-02-11T15:44:29.444Z,48.53
2023-02-11T15:46:57.096Z,44.67
2023-02-11T15:49:25.176Z,50.63
2023-02-11T15:51:54.076Z,50.53
2023-02-11T15:54:23.011Z,50.00
2023-02-11T15:56:51.940Z,48.20
2023-02-11T15:59:48.660Z,52.17
2023-02-11T16:02:20.634Z,50.87
2023-02-11T16:04:58.223Z,48.70
2023-02-11T16:07:42.171Z,55.33
2023-02-11T16:10:19.025Z,55.23
2023-02-11T16:12:58.990Z,51.93
2023-02-11T16:15:30.530Z,53.07
2023-02-11T16:17:58.329Z,54.10
2023-02-11T16:20:25.943Z,62.57
2023-02-11T16:22:56.507Z,54.50
2023-02-11T16:25:24.583Z,52.63
2023-02-11T16:27:52.972Z,48.10
2023-02-11T16:30:33.807Z,61.50
2023-02-11T16:33:01.487Z,53.77
2023-02-11T16:35:29.056Z,56.13
2023-02-11T16:37:56.888Z,50.63
2023-02-11T16:40:24.465Z,55.53
2023-02-11T16:42:52.125Z,55.90
2023-02-11T16:45:19.779Z,53.47
2023-02-11T16:47:47.413Z,46.80
2023-02-11T16:50:22.480Z,50.27
2023-02-11T16:52:50.242Z,51.93
2023-02-11T16:55:17.998Z,51.80
2023-02-11T16:57:45.673Z,54.10
2023-02-11T17:00:16.375Z,49.13
2023-02-11T17:02:44.131Z,51.90
2023-02-11T17:05:19.098Z,51.80
2023-02-11T17:07:46.985Z,54.63
2023-02-11T17:10:15.354Z,53.37
2023-02-11T17:12:42.985Z,52.17
2023-02-11T17:15:10.899Z,50.67
2023-02-11T17:17:38.445Z,54.20
2023-02-11T17:20:06.523Z,51.70
2023-02-11T17:22:34.076Z,59.67
2023-02-11T17:25:02.041Z,54.27
2023-02-11T17:27:29.661Z,52.33
2023-02-11T17:29:57.202Z,51.87
2023-02-11T17:32:24.952Z,57.60
2023-02-11T17:34:53.516Z,63.03
2023-02-11T17:37:21.085Z,57.13
2023-02-11T17:39:49.594Z,57.20
2023-02-11T17:42:17.561Z,58.30
2023-02-11T17:44:45.421Z,56.70
2023-02-11T17:47:13.299Z,59.90
2023-02-11T17:49:40.934Z,60.43
2023-02-11T17:52:08.625Z,55.83
2023-02-11T17:54:36.139Z,61.87
2023-02-11T17:57:03.703Z,62.53
2023-02-11T17:59:31.244Z,56.33
2023-02-11T18:01:58.913Z,59.40
2023-02-11T18:04:26.417Z,55.47
2023-02-11T18:06:54.114Z,65.97
2023-02-11T18:09:21.693Z,63.90
2023-02-11T18:11:50.872Z,63.70
2023-02-11T18:14:18.588Z,61.63
2023-02-11T18:16:46.370Z,57.43
2023-02-11T18:19:14.068Z,62.50
2023-02-11T18:21:44.525Z,63.40
2023-02-11T18:24:12.066Z,57.03
2023-02-11T18:26:39.738Z,67.03
2023-02-11T18:29:07.401Z,57.30
2023-02-11T18:31:35.019Z,68.60
2023-02-11T18:34:03.508Z,62.70
2023-02-11T18:36:31.100Z,65.97
2023-02-11T18:38:58.644Z,62.93
2023-02-11T18:41:26.138Z,65.47
2023-02-11T18:43:54.056Z,71.27
2023-02-11T18:46:21.666Z,64.40
2023-02-11T18:48:49.256Z,64.70
2023-02-11T18:51:18.521Z,67.47
2023-02-11T18:53:46.090Z,65.93
2023-02-11T18:56:15.164Z,62.73
2023-02-11T18:58:42.817Z,68.13
2023-02-11T19:01:11.713Z,68.03
2023-02-11T19:03:39.403Z,64.37
2023-02-11T19:06:07.127Z,60.87
2023-02-11T19:08:34.714Z,78.10
2023-02-11T19:11:04.919Z,61.70
2023-02-11T19:13:32.556Z,65.27
2023-02-11T19:16:00.133Z,69.10
2023-02-11T19:18:27.802Z,66.77
2023-02-11T19:20:55.334Z,66.70
2023-02-11T19:23:22.959Z,65.47
2023-02-11T19:25:50.849Z,71.80
2023-02-11T19:28:18.557Z,77.07
2023-02-11T19:30:46.277Z,70.53
2023-02-11T19:33:13.867Z,69.77
2023-02-11T19:35:41.377Z,76.43
2023-02-11T19:38:08.964Z,71.33
2023-02-11T19:40:36.509Z,68.83
2023-02-11T19:43:04.089Z,78.60
2023-02-11T19:45:31.577Z,72.60
2023-02-11T19:47:59.185Z,65.23
2023-02-11T19:50:26.657Z,72.33
2023-02-11T19:52:54.219Z,66.03
2023-02-11T19:55:22.030Z,72.27
2023-02-11T19:57:49.633Z,72.30
2023-02-11T20:00:17.318Z,76.00
2023-02-11T20:02:44.941Z,71.20
2023-02-11T20:05:12.476Z,76.57
2023-02-11T20:07:40.028Z,67.13
2023-02-11T20:10:08.087Z,65.10
2023-02-11T20:12:36.962Z,64.97
2023-02-11T20:15:05.114Z,67.60
2023-02-11T20:17:38.694Z,69.17
2023-02-11T20:20:09.282Z,66.87
2023-02-11T20:22:36.831Z,66.17
2023-02-11T20:25:04.399Z,71.40
2023-02-11T20:27:32.006Z,69.10
2023-02-11T20:29:59.894Z,65.33
2023-02-11T20:32:27.417Z,68.73
2023-02-11T20:34:54.925Z,64.30
2023-02-11T20:37:22.502Z,69.70
2023-02-11T20:39:53.032Z,70.73
2023-02-11T20:42:20.611Z,71.27
2023-02-11T20:44:48.221Z,63.80
2023-02-11T20:47:15.780Z,69.17
2023-02-11T20:49:43.380Z,68.83
2023-02-11T20:52:11.029Z,70.50
2023-02-11T20:54:38.569Z,70.27
2023-02-11T20:57:06.234Z,66.83
2023-02-11T20:59:33.750Z,68.13
2023-02-11T21:02:01.314Z,70.60
2023-02-11T21:04:30.149Z,61.60
2023-02-11T21:06:59.234Z,70.53
2023-02-11T21:09:28.414Z,69.93
2023-02-11T21:11:56.049Z,67.93
2023-02-11T21:14:24.686Z,62.87
2023-02-11T21:16:52.681Z,70.73
2023-02-11T21:19:21.252Z,73.20
2023-02-11T21:21:49.293Z,69.03
2023-02-11T21:24:16.865Z,68.50
2023-02-11T21:26:44.497Z,68.43
2023-02-11T21:29:12.398Z,67.57
2023-02-11T21:31:40.409Z,66.93
2023-02-11T21:34:08.069Z,67.53
2023-02-11T21:36:35.835Z,58.07
2023-02-11T21:39:03.492Z,63.23
2023-02-11T21:41:31.129Z,70.77
2023-02-11T21:43:58.690Z,60.10
2023-02-11T21:46:27.200Z,70.97
2023-02-11T21:48:54.798Z,64.27
2023-02-11T21:51:23.607Z,66.37
2023-02-11T21:53:58.516Z,59.67
2023-02-11T21:56:29.674Z,62.57
2023-02-11T21:58:58.291Z,55.73
2023-02-11T22:01:27.156Z,62.03
2023-02-11T22:03:54.778Z,68.60
2023-02-11T22:06:24.336Z,59.20
2023-02-11T22:08:53.505Z,66.87
2023-02-11T22:11:23.118Z,63.47
2023-02-11T22:13:57.135Z,60.47
2023-02-11T22:16:25.092Z,67.93
2023-02-11T22:18:53.220Z,60.03
2023-02-11T22:21:21.883Z,62.17
2023-02-11T22:23:49.806Z,57.23
2023-02-11T22:26:19.052Z,57.60
2023-02-11T22:28:46.898Z,63.63
2023-02-11T22:31:16.932Z,59.83
2023-02-11T22:33:44.666Z,58.13
2023-02-11T22:36:14.855Z,62.67
2023-02-11T22:38:42.530Z,61.87
2023-02-11T22:41:10.612Z,62.73
2023-02-11T22:43:38.599Z,59.33
2023-02-11T22:46:07.094Z,62.13
2023-02-11T22:48:34.966Z,63.80
2023-02-11T22:51:09.378Z,58.80
2023-02-11T22:53:37.003Z,62.43
2023-02-11T22:56:06.153Z,56.73
2023-02-11T22:58:34.524Z,61.00
2023-02-11T23:01:02.066Z,65.93
2023-02-11T23:03:32.694Z,64.87
2023-02-11T23:06:01.080Z,55.90
2023-02-11T23:08:29.297Z,56.73
2023-02-11T23:10:56.986Z,64.83
2023-02-11T23:13:24.500Z,61.00
2023-02-11T23:15:54.979Z,61.10
2023-02-11T23:18:25.483Z,60.87
2023-02-11T23:20:53.010Z,66.97
2023-02-11T23:23:20.613Z,59.73
2023-02-11T23:25:48.104Z,64.83
2023-02-11T23:28:15.715Z,58.20
2023-02-11T23:30:45.860Z,62.90
2023-02-11T23:33:13.470Z,63.17
2023-02-11T23:35:40.999Z,60.50
2023-02-11T23:38:08.638Z,58.07
2023-02-11T23:40:36.229Z,65.67
2023-02-11T23:43:04.060Z,63.73
2023-02-11T23:45:31.614Z,66.77
2023-02-11T23:47:59.310Z,63.17
2023-02-11T23:50:26.785Z,65.70
2023-02-11T23:52:54.385Z,62.13
2023-02-11T23:55:21.907Z,61.63
2023-02-11T23:57:49.416Z,63.87
